Time;durP1;ratioP1;P1;durP2;ratioP2;P2;SDS_P1;SDS_P2;PMS_P1;PMS_P2;Temp;Humidity;BMP_temperature;BMP_pressure;BME280_temperature;BME280_humidity;BME280_pressure;Samples;Min_cycle;Max_cycle;Signal;HPM_P1;HPM_P2
2022/10/15 00:00:37;;;;;;;;;5.33;5.33;;;;;16.71;77.79;100673.59;4891483;28;48415;-84
2022/10/15 00:03:03;;;;;;;;;6.33;5.67;;;;;16.74;77.61;100673.50;4929028;28;45832;-85
2022/10/15 00:05:28;;;;;;;;;7.33;6.00;;;;;16.79;77.87;100677.84;4908197;28;45425;-87
2022/10/15 00:07:54;;;;;;;;;8.00;8.00;;;;;16.78;77.83;100676.97;4912909;28;45352;-85
2022/10/15 00:10:20;;;;;;;;;8.67;8.00;;;;;16.74;77.90;100662.00;4920202;28;45499;-93
2022/10/15 00:12:47;;;;;;;;;7.00;7.00;;;;;16.79;78.00;100672.53;4934231;28;45325;-91
2022/10/15 00:15:15;;;;;;;;;9.00;7.33;;;;;16.77;78.07;100661.94;4921857;28;44645;-90
2022/10/15 00:17:40;;;;;;;;;7.67;7.67;;;;;16.75;77.91;100672.56;4918484;28;45249;-91
2022/10/15 00:20:08;;;;;;;;;6.67;6.67;;;;;16.85;77.93;100680.31;4928579;28;47060;-91
2022/10/15 00:22:35;;;;;;;;;7.00;6.00;;;;;16.76;77.98;100668.16;4910799;28;45449;-90
2022/10/15 00:25:01;;;;;;;;;7.00;6.00;;;;;16.86;77.96;100679.38;4941965;28;44782;-90
2022/10/15 00:27:26;;;;;;;;;8.33;8.33;;;;;16.87;78.32;100668.72;4940429;28;44887;-91
2022/10/15 00:29:52;;;;;;;;;8.00;7.67;;;;;16.84;77.96;100667.91;4937483;28;47358;-91
2022/10/15 00:32:17;;;;;;;;;9.67;9.00;;;;;16.87;78.05;100658.09;4930385;28;45351;-91
2022/10/15 00:34:43;;;;;;;;;9.33;8.00;;;;;16.92;77.98;100666.78;4914420;29;45470;-91
2022/10/15 00:37:09;;;;;;;;;7.33;7.00;;;;;16.94;78.18;100666.72;4897610;28;45525;-90
2022/10/15 00:39:35;;;;;;;;;10.00;8.67;;;;;16.94;78.07;100672.03;4931484;28;46924;-89
2022/10/15 00:42:01;;;;;;;;;5.33;5.00;;;;;16.96;78.08;100664.88;4913480;28;44690;-88
2022/10/15 00:44:29;;;;;;;;;8.00;7.33;;;;;16.95;78.02;100663.16;4928353;28;44716;-89
2022/10/15 00:47:00;;;;;;;;;10.00;8.67;;;;;16.95;78.13;100655.19;4927261;28;44833;-90
2022/10/15 00:49:34;;;;;;;;;8.00;8.00;;;;;16.92;78.20;100653.50;4929717;28;47525;-90
2022/10/15 00:52:08;;;;;;;;;6.33;6.33;;;;;16.94;77.98;100656.09;4926671;28;45319;-90
2022/10/15 00:54:44;;;;;;;;;5.67;5.00;;;;;16.93;78.15;100641.91;4929505;28;45296;-89
2022/10/15 00:57:11;;;;;;;;;7.00;7.00;;;;;16.88;78.27;100632.34;4929413;28;45861;-91
2022/10/15 00:59:41;;;;;;;;;6.00;6.00;;;;;16.93;78.29;100636.59;4935920;28;47464;-90
2022/10/15 01:02:08;;;;;;;;;5.67;5.67;;;;;16.89;78.29;100613.69;4915259;28;45464;-91
2022/10/15 01:04:35;;;;;;;;;5.00;4.00;;;;;16.92;78.19;100631.31;4929854;28;45238;-92
2022/10/15 01:07:01;;;;;;;;;8.00;7.00;;;;;16.82;78.36;100613.94;4911981;28;45558;-92
2022/10/15 01:09:28;;;;;;;;;6.33;5.67;;;;;16.89;78.23;100632.31;4910289;29;47813;-91
2022/10/15 01:11:55;;;;;;;;;4.00;3.00;;;;;16.87;78.19;100618.19;4929535;28;45434;-93
2022/10/15 01:14:42;;;;;;;;;5.00;4.00;;;;;16.87;78.52;100617.31;4914996;28;45364;-93
2022/10/15 01:17:23;;;;;;;;;6.00;4.00;;;;;16.86;78.48;100612.91;4913270;28;45530;-90
2022/10/15 01:20:09;;;;;;;;;6.00;4.33;;;;;16.87;78.38;100609.34;4912300;28;45618;-90
2022/10/15 01:23:12;;;;;;;;;4.00;2.67;;;;;16.87;78.33;100602.25;4913176;28;45408;-93
2022/10/15 01:25:55;;;;;;;;;3.00;3.00;;;;;16.84;78.55;100605.00;4926852;28;44692;-91
2022/10/15 01:28:40;;;;;;;;;3.00;3.00;;;;;16.87;78.56;100602.25;4943024;28;45549;-92
2022/10/15 01:31:14;;;;;;;;;3.00;3.00;;;;;16.88;78.71;100603.09;4927568;28;47318;-92
2022/10/15 01:33:59;;;;;;;;;3.67;3.67;;;;;16.88;78.54;100585.34;4912706;28;45189;-91
2022/10/15 01:36:42;;;;;;;;;3.00;3.00;;;;;16.87;78.37;100578.31;4929477;28;44727;-91
2022/10/15 01:39:23;;;;;;;;;1.33;1.33;;;;;16.77;78.40;100566.22;4913047;28;46023;-92
2022/10/15 01:41:58;;;;;;;;;3.00;3.00;;;;;16.77;78.50;100560.91;4928377;28;46440;-90
2022/10/15 01:44:37;;;;;;;;;5.00;3.67;;;;;16.82;78.95;100574.91;4928487;28;45344;-90
2022/10/15 01:47:07;;;;;;;;;2.33;2.33;;;;;16.83;78.80;100575.78;4911964;28;45236;-90
2022/10/15 01:49:41;;;;;;;;;3.33;3.33;;;;;16.80;78.58;100565.25;4898909;28;45815;-90
2022/10/15 01:52:24;;;;;;;;;2.67;2.00;;;;;16.76;78.86;100560.00;4925812;28;46968;-91
2022/10/15 01:54:52;;;;;;;;;1.33;1.33;;;;;16.71;78.72;100548.66;4915486;28;45463;-92
2022/10/15 01:57:21;;;;;;;;;1.67;1.67;;;;;16.77;78.58;100547.63;4932595;28;44908;-90
2022/10/15 01:59:47;;;;;;;;;2.00;2.00;;;;;16.73;78.91;100540.59;4917143;28;45329;-90
2022/10/15 02:02:14;;;;;;;;;2.67;2.67;;;;;16.78;78.79;100538.69;4914276;28;45443;-90
2022/10/15 02:04:39;;;;;;;;;1.00;1.00;;;;;16.79;78.92;100539.59;4912119;28;45244;-90
2022/10/15 02:07:14;;;;;;;;;2.00;2.00;;;;;16.79;78.91;100528.97;4912145;28;45337;-91
2022/10/15 02:09:58;;;;;;;;;1.33;1.33;;;;;16.80;79.09;100523.56;4910637;28;45515;-91
2022/10/15 02:12:57;;;;;;;;;1.67;1.33;;;;;16.74;79.19;100507.81;4897716;29;47079;-90
2022/10/15 02:15:48;;;;;;;;;1.33;1.33;;;;;16.82;78.73;100520.88;4915710;28;45327;-89
2022/10/15 02:18:28;;;;;;;;;1.00;1.00;;;;;16.81;79.15;100520.00;4909213;28;45209;-90
2022/10/15 02:21:19;;;;;;;;;3.00;3.00;;;;;16.81;79.19;100506.69;4922093;28;45822;-90
2022/10/15 02:24:20;;;;;;;;;2.00;2.00;;;;;16.81;79.25;100493.41;4897482;28;46161;-88
2022/10/15 02:26:48;;;;;;;;;2.00;2.00;;;;;16.81;79.28;100489.88;4904839;28;44813;-89
2022/10/15 02:29:18;;;;;;;;;2.00;2.00;;;;;16.82;79.27;100489.84;4908005;28;45187;-89
2022/10/15 02:31:47;;;;;;;;;3.00;3.00;;;;;16.84;79.04;100488.00;4921783;28;45420;-88
2022/10/15 02:34:16;;;;;;;;;2.00;2.00;;;;;16.85;79.12;100468.47;4902995;28;46260;-89
2022/10/15 02:36:43;;;;;;;;;1.33;1.33;;;;;16.81;79.48;100456.19;4927576;28;45514;-90
2022/10/15 02:39:13;;;;;;;;;2.67;2.67;;;;;16.78;79.37;100437.69;4918593;28;45373;-90
2022/10/15 02:41:39;;;;;;;;;2.00;2.00;;;;;16.88;79.48;100444.41;4933656;28;45334;-90
2022/10/15 02:44:05;;;;;;;;;1.00;1.00;;;;;16.86;79.29;100429.44;4907669;28;47116;-91
2022/10/15 02:46:31;;;;;;;;;1.00;1.00;;;;;16.78;79.30;100413.75;4912641;28;45516;-89
2022/10/15 02:48:56;;;;;;;;;1.00;1.00;;;;;16.92;79.42;100430.09;4927542;28;45339;-89
2022/10/15 02:51:22;;;;;;;;;1.00;1.00;;;;;16.98;79.34;100448.50;4912117;28;45541;-88
2022/10/15 02:53:47;;;;;;;;;1.00;1.00;;;;;17.01;79.48;100442.22;4934735;28;47361;-91
2022/10/15 02:56:15;;;;;;;;;1.00;1.00;;;;;17.02;79.44;100441.28;4930111;28;45430;-90
2022/10/15 02:58:42;;;;;;;;;1.00;1.00;;;;;17.00;79.32;100428.94;4915798;28;45419;-90
2022/10/15 03:01:07;;;;;;;;;0.67;0.33;;;;;17.04;79.04;100433.25;4920160;28;45492;-91
2022/10/15 03:03:33;;;;;;;;;1.00;1.00;;;;;17.04;79.29;100431.47;4917910;28;46892;-91
2022/10/15 03:05:59;;;;;;;;;0.67;0.67;;;;;17.01;79.18;100414.75;4913460;28;45502;-89
2022/10/15 03:08:24;;;;;;;;;0.00;0.00;;;;;16.95;79.38;100403.41;4913046;28;45238;-90
2022/10/15 03:10:50;;;;;;;;;3.00;3.00;;;;;17.08;79.64;100413.59;4924944;28;45266;-90
2022/10/15 03:13:15;;;;;;;;;2.00;1.00;;;;;17.09;79.54;100416.19;4924103;28;45206;-90
2022/10/15 03:15:41;;;;;;;;;1.67;1.00;;;;;17.01;79.32;100398.78;4912624;28;45688;-90
2022/10/15 03:18:07;;;;;;;;;3.00;2.00;;;;;17.04;79.66;100394.22;4907554;29;45286;-89
2022/10/15 03:20:32;;;;;;;;;2.00;1.00;;;;;17.12;79.59;100399.28;4894390;29;45478;-90
2022/10/15 03:22:58;;;;;;;;;0.67;0.67;;;;;17.10;79.78;100388.66;4894210;29;45386;-90
2022/10/15 03:25:23;;;;;;;;;1.00;0.67;;;;;17.15;79.79;100393.81;4879108;29;45354;-89
2022/10/15 03:27:51;;;;;;;;;1.00;1.00;;;;;17.16;79.82;100384.91;4889629;29;45302;-90
2022/10/15 03:30:17;;;;;;;;;1.00;0.33;;;;;17.16;79.48;100367.19;4893525;29;44825;-90
2022/10/15 03:32:44;;;;;;;;;0.00;0.00;;;;;17.15;79.68;100369.88;4908069;29;47131;-89
2022/10/15 03:35:09;;;;;;;;;0.33;0.33;;;;;17.13;79.43;100355.78;4895112;29;45255;-90
2022/10/15 03:37:35;;;;;;;;;0.00;0.00;;;;;17.20;79.30;100374.09;4907913;29;45734;-90
2022/10/15 03:40:01;;;;;;;;;0.33;0.33;;;;;17.19;79.35;100366.22;4894248;29;45469;-90
2022/10/15 03:42:26;;;;;;;;;1.00;1.00;;;;;17.20;79.65;100366.13;4893604;29;48105;-91
2022/10/15 03:44:51;;;;;;;;;0.00;0.00;;;;;17.23;79.71;100362.50;4889625;29;45523;-90
2022/10/15 03:47:17;;;;;;;;;0.00;0.00;;;;;17.25;79.78;100352.66;4891274;29;45265;-92
2022/10/15 03:49:45;;;;;;;;;0.33;0.33;;;;;17.27;79.60;100352.59;4887220;29;44841;-91
2022/10/15 03:52:12;;;;;;;;;0.00;0.00;;;;;17.24;79.61;100350.06;4894422;28;45211;-91
2022/10/15 03:54:38;;;;;;;;;0.33;0.33;;;;;17.29;79.79;100351.59;4911352;28;44563;-89
2022/10/15 03:57:03;;;;;;;;;0.00;0.00;;;;;17.27;79.63;100334.84;4896758;28;44760;-90
2022/10/15 03:59:30;;;;;;;;;0.33;0.33;;;;;17.27;80.03;100321.56;4901045;29;45211;-90
2022/10/15 04:01:57;;;;;;;;;1.00;1.00;;;;;17.29;79.47;100332.13;4899997;29;46573;-89
2022/10/15 04:04:22;;;;;;;;;0.00;0.00;;;;;17.25;79.90;100317.22;4903533;29;45511;-88
2022/10/15 04:06:48;;;;;;;;;0.00;0.00;;;;;17.28;79.90;100323.28;4894188;29;45452;-90
2022/10/15 04:09:14;;;;;;;;;0.33;0.00;;;;;17.35;79.92;100332.78;4891275;29;45382;-91
2022/10/15 04:11:40;;;;;;;;;0.00;0.00;;;;;17.34;80.09;100332.81;4893603;29;48132;-90
2022/10/15 04:14:06;;;;;;;;;2.67;1.00;;;;;17.36;80.01;100329.16;4910609;28;45374;-90
2022/10/15 04:16:32;;;;;;;;;0.00;0.00;;;;;17.38;79.96;100331.78;4898970;28;45462;-90
2022/10/15 04:18:58;;;;;;;;;0.00;0.00;;;;;17.38;80.03;100326.47;4928225;28;45310;-90
2022/10/15 04:21:26;;;;;;;;;0.00;0.00;;;;;17.36;80.25;100317.66;4928553;28;45960;-88
2022/10/15 04:23:51;;;;;;;;;0.00;0.00;;;;;17.39;80.35;100325.53;4930202;28;45258;-90
2022/10/15 04:26:18;;;;;;;;;1.67;0.00;;;;;17.38;80.56;100327.31;4914124;28;45282;-90
2022/10/15 04:28:44;;;;;;;;;2.00;1.00;;;;;17.35;80.50;100316.81;4928327;28;45362;-89
2022/10/15 04:31:09;;;;;;;;;2.33;2.00;;;;;17.38;80.54;100327.31;4911002;28;47103;-91
2022/10/15 04:33:36;;;;;;;;;1.00;1.00;;;;;17.37;80.64;100317.63;4913271;28;45316;-91
2022/10/15 04:36:07;;;;;;;;;2.00;2.00;;;;;17.31;80.62;100320.50;4912634;28;45459;-91
2022/10/15 04:38:35;;;;;;;;;3.33;1.67;;;;;17.36;80.93;100315.00;4911479;28;45299;-90
2022/10/15 04:41:11;;;;;;;;;3.67;1.33;;;;;17.37;80.64;100322.03;4910623;28;47363;-89
2022/10/15 04:43:37;;;;;;;;;2.00;2.00;;;;;17.35;80.59;100330.09;4909213;28;45461;-90
2022/10/15 04:46:05;;;;;;;;;2.00;2.00;;;;;17.30;80.75;100317.91;4926744;28;45310;-91
2022/10/15 04:48:34;;;;;;;;;3.00;2.00;;;;;17.35;81.02;100329.25;4928985;28;45242;-91
2022/10/15 04:51:08;;;;;;;;;3.00;3.00;;;;;17.34;80.64;100323.03;4927350;28;47258;-91
2022/10/15 04:53:33;;;;;;;;;2.00;2.00;;;;;17.38;80.94;100329.97;4925411;28;45777;-89
2022/10/15 04:56:05;;;;;;;;;1.33;1.33;;;;;17.32;80.70;100324.91;4911215;28;44847;-90
2022/10/15 04:58:33;;;;;;;;;3.67;1.67;;;;;17.39;80.89;100333.50;4910685;28;45274;-89
2022/10/15 05:01:14;;;;;;;;;;;;;;;;;;;;;
2022/10/15 05:03:42;;;;;;;;;1.33;0.33;;;;;17.39;80.84;100331.72;4922006;28;71568;-89
2022/10/15 05:06:11;;;;;;;;;0.67;0.67;;;;;17.46;80.92;100348.31;4910483;28;45481;-87
2022/10/15 05:08:40;;;;;;;;;0.00;0.00;;;;;17.47;80.89;100343.88;4925426;28;45435;-90
2022/10/15 05:11:09;;;;;;;;;0.00;0.00;;;;;17.40;81.04;100332.56;4910610;28;47355;-88
2022/10/15 05:13:35;;;;;;;;;1.00;1.00;;;;;17.49;80.82;100342.88;4910651;28;45397;-89
2022/10/15 05:16:14;;;;;;;;;0.00;0.00;;;;;17.48;81.00;100335.84;4928064;28;45363;-90
2022/10/15 05:18:41;;;;;;;;;0.67;0.67;;;;;17.44;80.74;100323.56;4911685;28;45289;-90
2022/10/15 05:21:07;;;;;;;;;1.00;1.00;;;;;17.51;80.66;100341.03;4927858;28;48082;-89
2022/10/15 05:23:33;;;;;;;;;0.00;0.00;;;;;17.51;80.77;100332.16;4923254;28;45383;-90
2022/10/15 05:26:00;;;;;;;;;0.00;0.00;;;;;17.53;81.01;100335.63;4915022;28;45382;-91
2022/10/15 05:28:25;;;;;;;;;0.00;0.00;;;;;17.48;80.79;100326.94;4925508;28;45673;-91
2022/10/15 05:30:51;;;;;;;;;1.67;1.00;;;;;17.52;81.11;100324.13;4921704;28;47914;-90
2022/10/15 05:33:16;;;;;;;;;0.00;0.00;;;;;17.48;80.82;100324.28;4912711;28;45863;-89
2022/10/15 05:35:42;;;;;;;;;1.00;1.00;;;;;17.51;80.83;100325.06;4924252;28;45438;-89
2022/10/15 05:38:07;;;;;;;;;0.33;0.33;;;;;17.59;81.10;100332.75;4910117;28;45511;-91
2022/10/15 05:40:33;;;;;;;;;0.33;0.33;;;;;17.61;80.88;100334.44;4915922;28;47552;-92
2022/10/15 05:42:58;;;;;;;;;0.00;0.00;;;;;17.62;80.69;100341.47;4925048;28;45279;-90
2022/10/15 05:45:24;;;;;;;;;1.00;1.00;;;;;17.59;81.00;100320.31;4925387;28;45269;-91
2022/10/15 05:47:53;;;;;;;;;1.00;1.00;;;;;17.65;80.63;100335.16;4923434;28;45508;-92
2022/10/15 05:50:19;;;;;;;;;2.00;1.00;;;;;17.60;80.81;100319.38;4909535;28;47453;-88
2022/10/15 05:52:44;;;;;;;;;1.00;1.00;;;;;17.65;80.68;100324.50;4940262;28;45327;-88
2022/10/15 05:55:10;;;;;;;;;0.00;0.00;;;;;17.62;80.76;100317.50;4935275;28;45043;-88
2022/10/15 05:57:35;;;;;;;;;2.00;1.00;;;;;17.58;80.81;100307.91;4949115;28;45335;-88
2022/10/15 06:00:02;;;;;;;;;0.00;0.00;;;;;17.59;80.68;100316.78;4916844;28;47181;-88
2022/10/15 06:02:28;;;;;;;;;2.00;1.00;;;;;17.58;80.67;100301.72;4917312;28;45692;-89
2022/10/15 06:04:53;;;;;;;;;1.00;1.00;;;;;17.64;80.95;100317.44;4917609;28;45269;-86
2022/10/15 06:07:19;;;;;;;;;0.33;0.00;;;;;17.68;80.51;100332.38;4910179;29;45068;-88
2022/10/15 06:09:44;;;;;;;;;1.00;1.00;;;;;17.71;80.96;100324.25;4923961;28;47011;-88
2022/10/15 06:12:10;;;;;;;;;2.00;1.00;;;;;17.71;80.90;100329.59;4929140;28;44664;-88
2022/10/15 06:14:35;;;;;;;;;0.00;0.00;;;;;17.68;80.45;100323.53;4926853;28;45182;-88
2022/10/15 06:17:00;;;;;;;;;1.00;0.00;;;;;17.71;80.64;100326.91;4912395;28;46119;-89
2022/10/15 06:19:26;;;;;;;;;0.00;0.00;;;;;17.70;81.01;100330.53;4907899;28;47610;-89
2022/10/15 06:21:51;;;;;;;;;0.00;0.00;;;;;17.75;80.95;100335.63;4925293;28;45248;-88
2022/10/15 06:24:17;;;;;;;;;1.00;1.00;;;;;17.70;80.71;100327.00;4910013;28;45414;-89
2022/10/15 06:26:42;;;;;;;;;0.00;0.00;;;;;17.73;80.77;100327.72;4928850;28;45498;-89
2022/10/15 06:29:11;;;;;;;;;0.00;0.00;;;;;17.73;80.68;100338.38;4921134;28;47373;-88
2022/10/15 06:31:36;;;;;;;;;0.00;0.00;;;;;17.73;80.81;100338.38;4908247;28;45430;-90
2022/10/15 06:34:02;;;;;;;;;1.00;1.00;;;;;17.74;81.28;100340.09;4929882;28;45320;-89
2022/10/15 06:36:27;;;;;;;;;0.67;0.67;;;;;17.70;80.79;100337.66;4924013;28;45546;-90
2022/10/15 06:38:53;;;;;;;;;0.00;0.00;;;;;17.75;80.84;100349.84;4904538;28;47238;-91
2022/10/15 06:41:18;;;;;;;;;0.00;0.00;;;;;17.75;80.75;100344.53;4906937;28;45289;-90
2022/10/15 06:43:44;;;;;;;;;0.00;0.00;;;;;17.68;81.11;100337.69;4920816;28;45881;-90
2022/10/15 06:46:11;;;;;;;;;1.00;1.00;;;;;17.63;80.87;100337.00;4900184;28;45593;-89
2022/10/15 06:48:36;;;;;;;;;0.00;0.00;;;;;17.73;81.33;100341.03;4923104;28;47079;-89
2022/10/15 06:51:02;;;;;;;;;0.00;0.00;;;;;17.78;81.08;100354.19;4899613;28;45699;-88
2022/10/15 06:53:29;;;;;;;;;0.00;0.00;;;;;17.79;81.40;100351.47;4926466;28;45292;-87
2022/10/15 06:55:59;;;;;;;;;0.33;0.00;;;;;17.79;81.40;100348.81;4920657;28;45572;-90
2022/10/15 06:58:25;;;;;;;;;0.00;0.00;;;;;17.75;81.28;100343.63;4910867;28;46862;-85
2022/10/15 07:00:51;;;;;;;;;0.33;0.33;;;;;17.76;81.37;100348.91;4929576;28;46057;-86
2022/10/15 07:03:16;;;;;;;;;0.00;0.00;;;;;17.74;81.52;100342.78;4949339;28;44688;-89
2022/10/15 07:05:42;;;;;;;;;0.00;0.00;;;;;17.87;81.10;100350.31;4907434;28;45237;-91
2022/10/15 07:08:07;;;;;;;;;0.00;0.00;;;;;17.89;81.17;100357.31;4924329;28;47340;-89
2022/10/15 07:10:32;;;;;;;;;0.00;0.00;;;;;17.89;81.18;100349.31;4906808;28;45362;-89
2022/10/15 07:12:59;;;;;;;;;0.00;0.00;;;;;17.95;81.09;100353.53;4907534;28;45375;-88
2022/10/15 07:15:25;;;;;;;;;0.00;0.00;;;;;17.98;81.29;100345.41;4906526;28;45340;-88
2022/10/15 07:17:52;;;;;;;;;0.33;0.33;;;;;17.97;81.05;100349.03;4888036;28;215372;-87
2022/10/15 07:20:18;;;;;;;;;0.00;0.00;;;;;18.06;81.09;100362.81;4906355;28;45384;-91
2022/10/15 07:22:45;;;;;;;;;0.00;0.00;;;;;18.17;80.85;100372.16;4903408;28;45304;-92
2022/10/15 07:25:11;;;;;;;;;0.00;0.00;;;;;18.21;80.70;100381.78;4920128;28;45301;-92
2022/10/15 07:27:37;;;;;;;;;0.00;0.00;;;;;18.25;80.76;100378.03;4910020;28;47729;-92
2022/10/15 07:30:04;;;;;;;;;0.00;0.00;;;;;18.17;80.91;100358.84;4900958;28;45357;-92
2022/10/15 07:32:29;;;;;;;;;0.00;0.00;;;;;18.22;80.67;100364.84;4925534;28;44907;-91
2022/10/15 07:34:55;;;;;;;;;0.67;0.00;;;;;18.26;80.24;100377.13;4918744;28;46184;-92
2022/10/15 07:37:20;;;;;;;;;1.00;0.00;;;;;18.21;80.19;100364.00;4917893;28;47288;-92
2022/10/15 07:39:46;;;;;;;;;0.33;0.33;;;;;18.30;80.44;100390.25;4935871;28;45279;-93
2022/10/15 07:42:11;;;;;;;;;0.00;0.00;;;;;18.36;79.89;100398.91;4920615;28;45397;-91
2022/10/15 07:44:38;;;;;;;;;0.00;0.00;;;;;18.36;79.75;100388.25;4938311;28;45244;-91
2022/10/15 07:47:03;;;;;;;;;0.00;0.00;;;;;18.40;79.71;100396.06;4920897;28;46400;-92
2022/10/15 07:49:29;;;;;;;;;0.00;0.00;;;;;18.40;80.09;100400.53;4947298;28;44737;-91
2022/10/15 07:51:54;;;;;;;;;0.00;0.00;;;;;18.39;79.59;100410.34;4931247;28;44698;-91
2022/10/15 07:54:20;;;;;;;;;0.00;0.00;;;;;18.33;80.06;100394.59;4931856;28;45196;-92
2022/10/15 07:56:48;;;;;;;;;0.00;0.00;;;;;18.38;79.98;100410.38;4936253;28;47072;-91
2022/10/15 07:59:16;;;;;;;;;0.00;0.00;;;;;18.38;79.59;100411.25;4906203;28;44759;-91
2022/10/15 08:01:42;;;;;;;;;0.00;0.00;;;;;18.38;79.98;100411.25;4911523;28;45371;-91
2022/10/15 08:04:10;;;;;;;;;0.00;0.00;;;;;18.34;80.01;100406.13;4911951;28;45551;-92
2022/10/15 08:06:39;;;;;;;;;0.00;0.00;;;;;18.34;79.43;100400.81;4909764;28;46748;-92
2022/10/15 08:09:04;;;;;;;;;0.33;0.00;;;;;18.29;79.49;100411.66;4926017;28;45375;-92
2022/10/15 08:11:33;;;;;;;;;1.00;1.00;;;;;18.23;79.54;100402.09;4926066;28;45574;-92
2022/10/15 08:13:58;;;;;;;;;0.00;0.00;;;;;18.28;79.40;100410.78;4912982;28;46114;-91
2022/10/15 08:16:24;;;;;;;;;0.00;0.00;;;;;18.37;79.40;100422.00;4926248;28;48083;-92
2022/10/15 08:18:50;;;;;;;;;0.00;0.00;;;;;18.27;79.35;100405.50;4911423;28;45208;-87
2022/10/15 08:21:16;;;;;;;;;1.00;0.00;;;;;18.39;79.46;100417.44;4908091;28;45514;-83
2022/10/15 08:23:45;;;;;;;;;1.00;1.00;;;;;18.30;79.13;100400.91;4909269;28;45286;-87
2022/10/15 08:26:10;;;;;;;;;0.00;0.00;;;;;18.37;78.90;100414.88;4910321;28;47241;-83
2022/10/15 08:28:36;;;;;;;;;1.33;1.00;;;;;18.42;78.64;100412.00;4924428;28;45455;-85
2022/10/15 08:31:03;;;;;;;;;2.00;1.00;;;;;18.42;78.56;100415.53;4919660;28;45467;-90
2022/10/15 08:33:28;;;;;;;;;1.00;0.33;;;;;18.49;78.76;100418.81;4907569;28;45458;-89
2022/10/15 08:36:03;;;;;;;;;0.00;0.00;;;;;18.50;78.16;100425.88;4906730;28;46993;-90
2022/10/15 08:38:29;;;;;;;;;0.00;0.00;;;;;18.49;78.00;100435.66;4925327;28;45239;-87
2022/10/15 08:41:01;;;;;;;;;2.00;1.00;;;;;18.48;78.40;100423.28;4906966;28;45473;-87
2022/10/15 08:43:40;;;;;;;;;0.00;0.00;;;;;18.58;77.88;100439.75;4910409;28;45471;-87
2022/10/15 08:46:14;;;;;;;;;0.00;0.00;;;;;18.59;77.80;100441.50;4918951;28;47256;-87
2022/10/15 08:48:46;;;;;;;;;0.00;0.00;;;;;18.66;77.92;100447.44;4923579;28;45330;-86
2022/10/15 08:51:17;;;;;;;;;1.00;0.00;;;;;18.68;77.62;100443.78;4890493;29;45467;-88
2022/10/15 08:53:48;;;;;;;;;0.00;0.00;;;;;18.68;77.36;100440.22;4902958;28;45351;-84
2022/10/15 08:56:26;;;;;;;;;1.00;1.00;;;;;18.83;77.25;100452.09;4906185;28;48331;-85
2022/10/15 08:59:26;;;;;;;;;0.67;0.67;;;;;18.89;77.30;100457.16;4910267;28;45329;-89
2022/10/15 09:02:01;;;;;;;;;0.67;0.67;;;;;18.98;76.65;100458.56;4910926;28;44841;-88
2022/10/15 09:04:27;;;;;;;;;0.00;0.00;;;;;19.12;77.06;100458.84;4924371;28;45341;-85
2022/10/15 09:07:11;;;;;;;;;1.00;1.00;;;;;19.17;76.76;100439.03;4926438;28;46320;-86
2022/10/15 09:09:42;;;;;;;;;0.00;0.00;;;;;19.31;76.31;100445.53;4922681;28;46172;-86
2022/10/15 09:12:25;;;;;;;;;0.00;0.00;;;;;19.53;76.33;100462.31;4922502;28;45514;-85
2022/10/15 09:14:53;;;;;;;;;1.00;0.67;;;;;19.64;75.62;100468.97;4921126;28;45555;-86
2022/10/15 09:17:22;;;;;;;;;0.00;0.00;;;;;19.67;75.13;100452.84;4905500;28;47571;-86
2022/10/15 09:19:53;;;;;;;;;0.00;0.00;;;;;19.94;74.19;100464.94;4924132;28;45339;-86
2022/10/15 09:22:23;;;;;;;;;0.00;0.00;;;;;20.06;74.02;100482.19;4907619;28;45350;-89
2022/10/15 09:24:49;;;;;;;;;1.00;1.00;;;;;20.09;73.23;100481.16;4925168;28;45242;-89
2022/10/15 09:27:37;;;;;;;;;0.00;0.00;;;;;20.01;72.74;100486.88;4921950;28;47175;-90
2022/10/15 09:30:24;;;;;;;;;0.00;0.00;;;;;19.96;72.34;100496.91;4894464;28;45236;-87
2022/10/15 09:33:31;;;;;;;;;0.00;0.00;;;;;19.94;72.41;100494.34;4923122;28;45524;-85
2022/10/15 09:36:25;;;;;;;;;0.33;0.00;;;;;19.93;72.44;100497.06;4887407;28;45745;-88
2022/10/15 09:39:02;;;;;;;;;0.67;0.67;;;;;19.86;72.33;100491.16;4915440;28;45303;-85
2022/10/15 09:41:45;;;;;;;;;0.00;0.00;;;;;19.84;72.19;100498.34;4892487;28;45290;-82
2022/10/15 09:44:13;;;;;;;;;0.00;0.00;;;;;19.81;72.00;100491.34;4903969;28;45444;-81
2022/10/15 09:46:46;;;;;;;;;0.00;0.00;;;;;19.79;72.16;100495.88;4919045;28;45426;-85
2022/10/15 09:49:18;;;;;;;;;1.00;0.00;;;;;19.82;71.84;100492.22;4923451;28;45462;-87
2022/10/15 09:51:46;;;;;;;;;1.00;0.00;;;;;19.90;71.77;100500.75;4913488;28;45486;-89
2022/10/15 09:54:38;;;;;;;;;0.00;0.00;;;;;19.88;72.15;100497.25;4911734;28;45475;-87
2022/10/15 09:57:08;;;;;;;;;0.00;0.00;;;;;19.81;71.87;100510.06;4921846;28;45585;-85
2022/10/15 09:59:33;;;;;;;;;0.67;0.67;;;;;19.74;72.09;100519.28;4905624;28;48227;-85
2022/10/15 10:02:01;;;;;;;;;0.00;0.00;;;;;19.79;72.57;100537.78;4917371;28;45310;-85
2022/10/15 10:04:32;;;;;;;;;0.67;0.67;;;;;19.83;72.57;100532.22;4930077;28;45569;-90
2022/10/15 10:07:02;;;;;;;;;0.00;0.00;;;;;20.02;72.84;100540.25;4955331;28;45256;-91
2022/10/15 10:09:35;;;;;;;;;2.00;1.67;;;;;20.18;72.65;100553.78;4923143;28;46678;-86
2022/10/15 10:12:15;;;;;;;;;0.00;0.00;;;;;20.24;71.54;100557.97;4930598;28;45493;-86
2022/10/15 10:14:53;;;;;;;;;0.00;0.00;;;;;20.21;70.99;100568.81;4906677;28;45554;-88
2022/10/15 10:17:29;;;;;;;;;0.00;0.00;;;;;20.04;70.72;100542.84;4884422;29;45663;-86
2022/10/15 10:20:13;;;;;;;;;0.67;0.67;;;;;20.14;70.67;100554.00;4903793;29;46380;-86
2022/10/15 10:22:48;;;;;;;;;0.33;0.33;;;;;20.17;70.09;100553.84;4893742;29;45388;-86
2022/10/15 10:25:25;;;;;;;;;1.00;1.00;;;;;20.24;70.10;100555.31;4902240;29;45246;-86
2022/10/15 10:27:52;;;;;;;;;0.00;0.00;;;;;20.17;69.95;100557.38;4911432;28;45362;-85
2022/10/15 10:30:19;;;;;;;;;1.33;0.00;;;;;20.18;69.67;100561.81;4900342;29;47183;-85
2022/10/15 10:32:46;;;;;;;;;0.00;0.00;;;;;20.21;69.10;100568.81;4885720;29;45453;-88
2022/10/15 10:35:21;;;;;;;;;0.33;0.33;;;;;20.28;69.32;100565.75;4903328;29;45494;-84
2022/10/15 10:37:54;;;;;;;;;0.00;0.00;;;;;20.45;69.29;100569.47;4904113;28;45493;-89
2022/10/15 10:40:34;;;;;;;;;0.00;0.00;;;;;20.68;68.97;100573.72;4924507;28;47094;-87
2022/10/15 10:43:27;;;;;;;;;0.00;0.00;;;;;21.09;68.47;100570.81;4891295;29;44958;-87
2022/10/15 10:45:54;;;;;;;;;0.00;0.00;;;;;21.24;68.00;100550.44;4916773;28;44899;-90
2022/10/15 10:48:23;;;;;;;;;0.00;0.00;;;;;21.27;67.48;100547.59;4912472;28;45547;-88
2022/10/15 10:51:01;;;;;;;;;0.00;0.00;;;;;21.51;67.13;100569.59;4901253;28;46687;-89
2022/10/15 10:53:37;;;;;;;;;;;;;;;;;;;;;
2022/10/15 10:56:14;;;;;;;;;1.00;1.00;;;;;21.26;64.89;100586.91;4912674;29;67897;-93
2022/10/15 10:58:40;;;;;;;;;1.00;1.00;;;;;21.02;64.82;100580.97;4911588;28;45445;-90
2022/10/15 11:01:11;;;;;;;;;0.33;0.33;;;;;20.74;64.83;100585.94;4901672;28;47383;-85
2022/10/15 11:03:54;;;;;;;;;;;;;;;;;;;;;
2022/10/15 11:06:36;;;;;;;;;1.67;1.67;;;;;20.15;65.28;100591.31;4911580;29;67955;-86
2022/10/15 11:09:11;;;;;;;;;0.00;0.00;;;;;20.01;65.97;100601.78;4900491;29;45403;-86
2022/10/15 11:11:58;;;;;;;;;0.00;0.00;;;;;19.85;66.16;100592.72;4910402;28;47541;-85
2022/10/15 11:14:24;;;;;;;;;0.67;0.67;;;;;19.72;66.67;100597.75;4910451;28;45422;-88
2022/10/15 11:16:50;;;;;;;;;1.00;1.00;;;;;19.69;67.48;100605.91;4902393;28;45407;-87
2022/10/15 11:19:39;;;;;;;;;1.67;0.67;;;;;19.70;68.12;100586.25;4917243;28;45477;-87
2022/10/15 11:22:25;;;;;;;;;0.00;0.00;;;;;19.89;68.20;100608.56;4932315;28;47162;-86
2022/10/15 11:25:02;;;;;;;;;0.00;0.00;;;;;20.01;67.33;100607.13;4880597;28;44832;-85
2022/10/15 11:27:49;;;;;;;;;0.67;0.67;;;;;20.27;67.96;100597.94;4932507;28;45415;-85
2022/10/15 11:30:37;;;;;;;;;0.00;0.00;;;;;20.55;67.39;100594.84;4916215;28;45390;-85
2022/10/15 11:33:20;;;;;;;;;6.67;6.67;;;;;20.85;67.11;100602.34;4942058;28;45547;-89
2022/10/15 11:35:59;;;;;;;;;0.00;0.00;;;;;21.36;66.46;100581.97;4927411;28;44785;-88
2022/10/15 11:38:49;;;;;;;;;0.00;0.00;;;;;22.14;65.37;100580.53;4910486;28;45308;-89
2022/10/15 11:41:33;;;;;;;;;0.00;0.00;;;;;22.99;62.87;100583.88;4910447;28;45280;-85
2022/10/15 11:44:17;;;;;;;;;0.00;0.00;;;;;23.15;60.18;100579.38;4922470;28;47691;-86